createdAt,value
2023-01-08T00:02:03.654Z,26.53
2023-01-08T00:04:31.978Z,26.55
2023-01-08T00:07:00.365Z,27.00
2023-01-08T00:09:28.763Z,25.17
2023-01-08T00:12:00.589Z,25.87
2023-01-08T00:14:28.993Z,25.77
2023-01-08T00:16:57.366Z,25.25
2023-01-08T00:19:25.820Z,26.77
2023-01-08T00:21:54.249Z,26.60
2023-01-08T00:24:22.609Z,26.57
2023-01-08T00:26:51.116Z,26.87
2023-01-08T00:29:23.050Z,25.38
2023-01-08T00:31:51.407Z,24.90
2023-01-08T00:34:19.732Z,24.73
2023-01-08T00:36:48.115Z,24.60
2023-01-08T00:39:16.463Z,25.80
2023-01-08T00:41:45.570Z,24.80
2023-01-08T00:44:13.823Z,23.97
2023-01-08T00:46:43.523Z,23.20
2023-01-08T00:49:11.968Z,23.13
2023-01-08T00:51:40.327Z,24.67
2023-01-08T00:54:08.595Z,24.53
2023-01-08T00:56:37.039Z,23.40
2023-01-08T00:59:05.407Z,22.97
2023-01-08T01:01:35.792Z,22.10
2023-01-08T01:04:06.239Z,20.40
2023-01-08T01:06:34.699Z,21.80
2023-01-08T01:09:03.072Z,20.33
2023-01-08T01:11:31.453Z,22.37
2023-01-08T01:13:59.776Z,21.03
2023-01-08T01:16:28.830Z,21.27
2023-01-08T01:18:58.411Z,21.77
2023-01-08T01:21:30.065Z,20.77
2023-01-08T01:23:59.921Z,20.13
2023-01-08T01:26:29.873Z,19.73
2023-01-08T01:28:59.342Z,20.93
2023-01-08T01:31:30.895Z,21.03
2023-01-08T01:33:59.529Z,20.77
2023-01-08T01:36:29.408Z,20.20
2023-01-08T01:38:59.017Z,19.17
2023-01-08T01:41:29.788Z,20.73
2023-01-08T01:44:00.174Z,18.77
2023-01-08T01:46:37.354Z,19.40
2023-01-08T01:49:10.204Z,19.87
2023-01-08T01:51:42.803Z,19.27
2023-01-08T01:54:14.005Z,18.93
2023-01-08T01:56:43.588Z,19.70
2023-01-08T01:59:12.659Z,19.53
2023-01-08T02:01:42.629Z,19.63
2023-01-08T02:04:11.587Z,19.80
2023-01-08T02:06:46.393Z,20.50
2023-01-08T02:09:21.807Z,18.77
2023-01-08T02:12:14.640Z,18.90
2023-01-08T02:14:53.498Z,19.33
2023-01-08T02:17:28.302Z,20.00
2023-01-08T02:20:00.686Z,18.03
2023-01-08T02:22:44.242Z,17.93
2023-01-08T02:25:21.935Z,18.07
2023-01-08T02:27:55.149Z,15.63
2023-01-08T02:30:26.086Z,16.27
2023-01-08T02:32:54.490Z,16.87
2023-01-08T02:35:22.915Z,16.27
2023-01-08T02:37:51.293Z,16.30
2023-01-08T02:40:27.621Z,16.43
2023-01-08T02:43:06.342Z,15.30
2023-01-08T02:45:45.190Z,16.43
2023-01-08T02:48:16.291Z,17.20
2023-01-08T02:50:49.929Z,16.10
2023-01-08T02:53:21.801Z,16.57
2023-01-08T02:55:54.277Z,16.83
2023-01-08T02:58:27.827Z,15.93
2023-01-08T03:00:56.761Z,17.10
2023-01-08T03:03:27.602Z,16.73
2023-01-08T03:05:58.414Z,18.23
2023-01-08T03:08:27.251Z,18.10
2023-01-08T03:11:01.993Z,17.80
2023-01-08T03:13:36.897Z,17.37
2023-01-08T03:16:10.760Z,17.43
2023-01-08T03:18:43.432Z,17.37
2023-01-08T03:21:13.518Z,16.50
2023-01-08T03:23:44.723Z,17.47
2023-01-08T03:26:16.762Z,17.63
2023-01-08T03:28:49.625Z,16.43
2023-01-08T03:31:20.151Z,16.63
2023-01-08T03:33:50.420Z,16.53
2023-01-08T03:36:26.094Z,17.00
2023-01-08T03:39:01.480Z,17.23
2023-01-08T03:41:32.715Z,16.77
2023-01-08T03:44:02.717Z,16.70
2023-01-08T03:46:34.746Z,16.37
2023-01-08T03:49:05.789Z,16.63
2023-01-08T03:51:41.696Z,15.43
2023-01-08T03:54:14.133Z,16.83
2023-01-08T03:56:42.942Z,17.10
2023-01-08T03:59:14.068Z,16.27
2023-01-08T04:01:42.951Z,15.73
2023-01-08T04:04:12.745Z,16.33
2023-01-08T04:06:42.668Z,15.53
2023-01-08T04:09:12.401Z,14.63
2023-01-08T04:11:40.819Z,14.27
2023-01-08T04:14:09.347Z,11.87
2023-01-08T04:16:39.601Z,13.77
2023-01-08T04:19:08.035Z,13.53
2023-01-08T04:21:36.389Z,12.97
2023-01-08T04:24:05.640Z,13.90
2023-01-08T04:26:34.349Z,12.63
2023-01-08T04:29:04.576Z,13.30
2023-01-08T04:31:33.562Z,13.23
2023-01-08T04:34:06.352Z,12.97
2023-01-08T04:36:34.749Z,11.77
2023-01-08T04:39:03.092Z,12.43
2023-01-08T04:41:34.578Z,11.43
2023-01-08T04:44:03.053Z,10.83
2023-01-08T04:46:31.796Z,10.10
2023-01-08T04:49:02.203Z,11.07
2023-01-08T04:51:32.140Z,11.27
2023-01-08T04:54:00.510Z,11.67
2023-01-08T04:56:28.942Z,10.77
2023-01-08T04:58:57.383Z,10.00
2023-01-08T05:01:28.364Z,10.87
2023-01-08T05:03:58.268Z,10.13
2023-01-08T05:06:29.645Z,9.97
2023-01-08T05:08:59.617Z,9.83
2023-01-08T05:11:27.998Z,9.97
2023-01-08T05:13:58.161Z,10.83
2023-01-08T05:16:26.561Z,10.43
2023-01-08T05:18:56.823Z,9.93
2023-01-08T05:21:25.219Z,9.77
2023-01-08T05:23:53.506Z,10.40
2023-01-08T05:26:23.340Z,9.83
2023-01-08T05:28:51.701Z,10.43
2023-01-08T05:31:20.265Z,10.70
2023-01-08T05:33:48.634Z,9.87
2023-01-08T05:36:17.063Z,10.53
2023-01-08T05:38:45.434Z,9.63
2023-01-08T05:41:13.940Z,9.97
2023-01-08T05:43:43.749Z,10.30
2023-01-08T05:46:13.505Z,9.87
2023-01-08T05:48:42.071Z,10.70
2023-01-08T05:51:10.510Z,9.60
2023-01-08T05:53:38.902Z,9.17
2023-01-08T05:56:09.995Z,9.30
2023-01-08T05:58:38.663Z,9.73
2023-01-08T06:01:12.117Z,9.33
2023-01-08T06:03:45.194Z,9.30
2023-01-08T06:06:18.216Z,8.53
2023-01-08T06:08:47.767Z,9.63
2023-01-08T06:11:16.260Z,9.23
2023-01-08T06:13:46.517Z,9.20
2023-01-08T06:16:17.603Z,10.17
2023-01-08T06:18:46.088Z,8.90
2023-01-08T06:21:14.714Z,9.20
2023-01-08T06:23:43.140Z,9.73
2023-01-08T06:26:11.667Z,9.70
2023-01-08T06:28:40.165Z,10.20
2023-01-08T06:31:08.781Z,9.97
2023-01-08T06:33:38.559Z,9.33
2023-01-08T06:36:07.565Z,9.93
2023-01-08T06:38:37.355Z,8.83
2023-01-08T06:41:06.865Z,9.30
2023-01-08T06:43:36.085Z,9.70
2023-01-08T06:46:05.485Z,9.10
2023-01-08T06:48:34.086Z,8.53
2023-01-08T06:51:05.005Z,9.13
2023-01-08T06:53:35.426Z,8.37
2023-01-08T06:56:05.089Z,9.73
2023-01-08T06:58:33.518Z,9.80
2023-01-08T07:01:04.100Z,9.00
2023-01-08T07:03:34.453Z,9.47
2023-01-08T07:06:05.930Z,9.17
2023-01-08T07:08:34.351Z,9.60
2023-01-08T07:11:04.060Z,9.77
2023-01-08T07:13:32.768Z,10.17
2023-01-08T07:16:07.292Z,9.77
2023-01-08T07:18:38.867Z,9.43
2023-01-08T07:21:09.781Z,10.70
2023-01-08T07:23:54.944Z,10.73
2023-01-08T07:26:23.364Z,10.07
2023-01-08T07:28:54.803Z,10.93
2023-01-08T07:31:23.597Z,10.30
2023-01-08T07:33:51.951Z,10.97
2023-01-08T07:36:22.573Z,10.83
2023-01-08T07:38:51.219Z,11.00
2023-01-08T07:41:19.668Z,11.80
2023-01-08T07:43:50.551Z,11.10
2023-01-08T07:46:19.402Z,10.77
2023-01-08T07:48:47.956Z,10.40
2023-01-08T07:51:16.468Z,10.90
2023-01-08T07:53:46.371Z,11.97
2023-01-08T07:56:17.390Z,10.83
2023-01-08T07:58:45.911Z,9.73
2023-01-08T08:01:14.911Z,10.20
2023-01-08T08:03:45.444Z,10.47
2023-01-08T08:06:16.745Z,10.37
2023-01-08T08:08:48.033Z,11.13
2023-01-08T08:11:18.748Z,10.23
2023-01-08T08:13:47.578Z,10.50
2023-01-08T08:16:16.024Z,10.03
2023-01-08T08:18:44.666Z,10.07
2023-01-08T08:21:15.204Z,11.07
2023-01-08T08:23:43.685Z,9.33
2023-01-08T08:26:16.304Z,11.00
2023-01-08T08:28:44.823Z,11.23
2023-01-08T08:31:15.050Z,11.20
2023-01-08T08:33:44.082Z,11.13
2023-01-08T08:36:15.006Z,10.33
2023-01-08T08:38:45.382Z,10.77
2023-01-08T08:41:17.118Z,10.47
2023-01-08T08:43:50.190Z,10.93
2023-01-08T08:46:18.873Z,11.97
2023-01-08T08:48:48.159Z,10.67
2023-01-08T08:51:16.719Z,10.50
2023-01-08T08:53:45.236Z,11.57
2023-01-08T08:56:16.335Z,10.77
2023-01-08T08:58:45.513Z,11.07
2023-01-08T09:01:14.091Z,10.60
2023-01-08T09:03:42.525Z,10.63
2023-01-08T09:06:15.706Z,10.20
2023-01-08T09:08:44.306Z,10.43
2023-01-08T09:11:14.632Z,10.17
2023-01-08T09:13:43.065Z,10.33
2023-01-08T09:16:11.766Z,10.43
2023-01-08T09:18:40.289Z,10.47
2023-01-08T09:21:09.646Z,10.43
2023-01-08T09:23:40.021Z,10.57
2023-01-08T09:26:13.546Z,10.80
2023-01-08T09:28:43.621Z,11.23
2023-01-08T09:31:17.397Z,9.93
2023-01-08T09:33:46.029Z,11.37
2023-01-08T09:36:14.571Z,10.67
2023-01-08T09:38:46.226Z,11.10
2023-01-08T09:41:22.284Z,11.03
2023-01-08T09:43:55.200Z,11.50
2023-01-08T09:46:30.721Z,10.43
2023-01-08T09:49:06.773Z,11.20
2023-01-08T09:51:42.346Z,10.10
2023-01-08T09:54:18.921Z,10.20
2023-01-08T09:56:57.049Z,11.27
2023-01-08T09:59:33.524Z,11.07
2023-01-08T10:02:07.795Z,10.60
2023-01-08T10:04:38.504Z,10.17
2023-01-08T10:07:27.345Z,11.33
2023-01-08T10:10:25.152Z,10.63
2023-01-08T10:13:47.197Z,10.27
2023-01-08T10:17:12.328Z,10.55
2023-01-08T10:20:21.830Z,10.67
2023-01-08T10:24:02.137Z,11.03
2023-01-08T10:26:37.529Z,10.23
2023-01-08T10:29:34.381Z,10.50
2023-01-08T10:32:24.187Z,10.75
2023-01-08T10:36:34.177Z,10.85
2023-01-08T10:39:15.692Z,10.95
2023-01-08T10:42:09.823Z,10.27
2023-01-08T10:44:39.033Z,10.10
2023-01-08T10:47:22.586Z,10.60
2023-01-08T10:50:03.306Z,11.05
2023-01-08T10:52:38.315Z,11.60
2023-01-08T10:55:22.652Z,11.17
2023-01-08T10:57:58.258Z,10.83
2023-01-08T11:00:36.031Z,9.93
2023-01-08T11:03:34.092Z,9.90
2023-01-08T11:06:15.574Z,10.35
2023-01-08T11:08:56.640Z,9.77
2023-01-08T11:12:00.204Z,9.47
2023-01-08T11:14:35.800Z,11.48
2023-01-08T11:17:12.805Z,10.40
2023-01-08T11:19:42.717Z,10.33
2023-01-08T11:22:21.097Z,9.93
2023-01-08T11:25:00.112Z,13.00
2023-01-08T11:27:32.113Z,10.73
2023-01-08T11:30:06.892Z,9.77
2023-01-08T11:32:47.018Z,8.60
2023-01-08T11:35:21.690Z,8.30
2023-01-08T11:37:55.601Z,9.20
2023-01-08T11:40:35.886Z,9.10
2023-01-08T11:43:17.232Z,8.75
2023-01-08T11:45:59.045Z,9.85
2023-01-08T11:48:57.067Z,8.93
2023-01-08T11:51:47.354Z,9.60
2023-01-08T11:54:34.713Z,9.57
2023-01-08T11:57:19.329Z,9.77
2023-01-08T12:00:00.432Z,9.40
2023-01-08T12:02:42.665Z,8.93
2023-01-08T12:05:27.900Z,9.13
2023-01-08T12:08:11.325Z,9.60
2023-01-08T12:11:06.619Z,9.07
2023-01-08T12:13:58.305Z,10.00
2023-01-08T12:16:45.648Z,10.20
2023-01-08T12:19:28.768Z,9.90
2023-01-08T12:22:20.612Z,9.03
2023-01-08T12:25:05.503Z,9.37
2023-01-08T12:27:56.823Z,9.67
2023-01-08T12:30:40.698Z,9.80
2023-01-08T12:33:18.515Z,10.57
2023-01-08T12:35:55.371Z,10.87
2023-01-08T12:38:34.364Z,10.97
2023-01-08T12:41:10.453Z,9.63
2023-01-08T12:43:49.685Z,10.20
2023-01-08T12:46:19.339Z,10.90
2023-01-08T12:48:52.100Z,10.77
2023-01-08T12:51:27.790Z,10.87
2023-01-08T12:54:09.768Z,10.93
2023-01-08T12:56:47.948Z,11.30
2023-01-08T12:59:29.624Z,11.20
2023-01-08T13:02:05.251Z,11.37
2023-01-08T13:04:43.350Z,13.17
2023-01-08T13:07:21.710Z,12.03
2023-01-08T13:09:57.639Z,11.07
2023-01-08T13:12:39.537Z,11.53
2023-01-08T13:15:26.665Z,11.07
2023-01-08T13:18:01.038Z,12.40
2023-01-08T13:20:37.030Z,12.43
2023-01-08T13:23:07.111Z,11.80
2023-01-08T13:25:40.202Z,10.97
2023-01-08T13:28:33.849Z,11.33
2023-01-08T13:31:30.618Z,11.50
2023-01-08T13:33:59.172Z,10.43
2023-01-08T13:36:32.623Z,10.80
2023-01-08T13:39:03.321Z,12.17
2023-01-08T13:41:42.601Z,12.77
2023-01-08T13:44:29.320Z,11.33
2023-01-08T13:47:08.239Z,12.40
2023-01-08T13:49:59.260Z,12.03
2023-01-08T13:52:40.625Z,11.80
2023-01-08T13:55:22.672Z,13.33
2023-01-08T13:58:23.534Z,12.90
2023-01-08T14:01:18.432Z,12.10
2023-01-08T14:04:11.683Z,12.87
2023-01-08T14:09:43.489Z,13.67
2023-01-08T14:12:22.473Z,13.23
2023-01-08T14:14:58.271Z,13.63
2023-01-08T14:17:34.414Z,12.67
2023-01-08T14:20:07.440Z,15.63
2023-01-08T14:22:37.338Z,13.23
2023-01-08T14:25:08.137Z,13.40
2023-01-08T14:27:36.982Z,13.63
2023-01-08T14:30:17.399Z,13.37
2023-01-08T14:32:47.412Z,13.93
2023-01-08T14:35:21.890Z,14.07
2023-01-08T14:37:50.496Z,13.40
2023-01-08T14:40:29.894Z,13.00
2023-01-08T14:43:05.739Z,13.73
2023-01-08T14:45:36.188Z,13.77
2023-01-08T14:48:17.076Z,13.43
2023-01-08T14:51:08.556Z,14.57
2023-01-08T14:53:41.333Z,13.43
2023-01-08T14:56:14.626Z,13.57
2023-01-08T14:58:48.347Z,13.20
2023-01-08T15:01:28.988Z,13.27
2023-01-08T15:04:16.792Z,13.10
2023-01-08T15:06:48.472Z,12.77
2023-01-08T15:09:27.475Z,13.53
2023-01-08T15:11:57.956Z,12.77
2023-01-08T15:14:30.974Z,13.13
2023-01-08T15:17:01.531Z,12.87
2023-01-08T15:19:43.100Z,13.17
2023-01-08T15:22:19.799Z,13.43
2023-01-08T15:25:02.215Z,13.23
2023-01-08T15:27:37.003Z,12.77
2023-01-08T15:30:21.423Z,13.77
2023-01-08T15:32:56.177Z,12.93
2023-01-08T15:35:32.823Z,13.73
2023-01-08T15:38:01.431Z,12.87
2023-01-08T15:40:29.911Z,12.00
2023-01-08T15:43:15.498Z,12.20
2023-01-08T15:45:46.052Z,13.83
2023-01-08T15:48:18.903Z,13.67
2023-01-08T15:50:53.552Z,12.17
2023-01-08T15:53:23.487Z,13.10
2023-01-08T15:55:52.781Z,11.57
2023-01-08T15:58:21.219Z,13.07
2023-01-08T16:00:51.803Z,12.37
2023-01-08T16:03:21.248Z,14.50
2023-01-08T16:05:53.296Z,12.93
2023-01-08T16:08:21.833Z,13.03
2023-01-08T16:10:53.545Z,13.20
2023-01-08T16:13:24.130Z,12.90
2023-01-08T16:15:52.757Z,12.43
2023-01-08T16:18:21.292Z,13.30
2023-01-08T16:20:50.928Z,13.10
2023-01-08T16:23:20.845Z,13.83
2023-01-08T16:25:49.876Z,13.20
2023-01-08T16:28:18.426Z,11.77
2023-01-08T16:30:46.888Z,13.37
2023-01-08T16:33:16.747Z,12.20
2023-01-08T16:35:58.392Z,13.43
2023-01-08T16:38:33.621Z,13.73
2023-01-08T16:41:04.975Z,15.10
2023-01-08T16:43:40.500Z,12.13
2023-01-08T16:46:13.798Z,13.53
2023-01-08T16:48:43.404Z,13.53
2023-01-08T16:51:12.492Z,12.00
2023-01-08T16:53:42.509Z,14.13
2023-01-08T16:56:11.859Z,12.87
2023-01-08T16:58:47.670Z,12.80
2023-01-08T17:01:16.299Z,14.50
2023-01-08T17:03:44.942Z,13.77
2023-01-08T17:06:15.733Z,14.80
2023-01-08T17:08:47.217Z,14.23
2023-01-08T17:11:19.952Z,13.00
2023-01-08T17:13:56.954Z,12.23
2023-01-08T17:16:31.037Z,13.23
2023-01-08T17:19:03.220Z,14.50
2023-01-08T17:21:34.947Z,13.80
2023-01-08T17:24:07.750Z,13.87
2023-01-08T17:26:38.021Z,13.83
2023-01-08T17:29:06.586Z,13.33
2023-01-08T17:31:40.199Z,14.13
2023-01-08T17:34:09.631Z,13.57
2023-01-08T17:36:38.564Z,14.57
2023-01-08T17:39:08.609Z,13.50
2023-01-08T17:41:55.274Z,14.40
2023-01-08T17:44:28.043Z,15.03
2023-01-08T17:46:58.594Z,13.80
2023-01-08T17:49:27.139Z,13.73
2023-01-08T17:51:57.122Z,14.80
2023-01-08T17:54:27.177Z,14.43
2023-01-08T17:56:55.688Z,14.40
2023-01-08T17:59:24.299Z,15.63
2023-01-08T18:01:56.644Z,15.00
2023-01-08T18:04:31.147Z,13.90
2023-01-08T18:07:02.163Z,14.90
2023-01-08T18:09:45.167Z,15.40
2023-01-08T18:12:23.138Z,14.43
2023-01-08T18:14:51.600Z,14.83
2023-01-08T18:17:20.047Z,14.93
2023-01-08T18:19:48.777Z,14.40
2023-01-08T18:22:17.256Z,14.70
2023-01-08T18:24:49.401Z,15.03
2023-01-08T18:27:23.707Z,14.77
2023-01-08T18:30:07.746Z,15.07
2023-01-08T18:32:41.538Z,14.73
2023-01-08T18:35:12.940Z,15.80
2023-01-08T18:37:42.713Z,14.47
2023-01-08T18:40:14.587Z,15.30
2023-01-08T18:42:46.479Z,15.03
2023-01-08T18:45:21.897Z,16.40
2023-01-08T18:47:58.825Z,16.07
2023-01-08T18:50:30.451Z,16.17
2023-01-08T18:52:59.178Z,16.83
2023-01-08T18:55:31.686Z,15.73
2023-01-08T18:58:02.087Z,14.93
2023-01-08T19:00:33.427Z,16.13
2023-01-08T19:03:02.917Z,15.50
2023-01-08T19:05:33.573Z,15.87
2023-01-08T19:08:02.083Z,17.07
2023-01-08T19:10:33.684Z,16.17
2023-01-08T19:13:12.592Z,17.47
2023-01-08T19:15:43.411Z,16.80
2023-01-08T19:18:14.235Z,18.07
2023-01-08T19:20:51.206Z,18.27
2023-01-08T19:23:26.708Z,18.67
2023-01-08T19:26:00.119Z,15.90
2023-01-08T19:28:34.644Z,17.43
2023-01-08T19:31:14.095Z,17.60
2023-01-08T19:33:44.699Z,17.53
2023-01-08T19:36:28.064Z,16.77
2023-01-08T19:39:15.294Z,17.03
2023-01-08T19:42:04.568Z,16.10
2023-01-08T19:44:34.531Z,15.97
2023-01-08T19:47:12.142Z,16.40
2023-01-08T19:50:07.424Z,17.07
2023-01-08T19:52:41.850Z,17.40
2023-01-08T19:55:16.125Z,16.43
2023-01-08T19:57:46.595Z,16.77
2023-01-08T20:00:20.040Z,16.00
2023-01-08T20:02:54.602Z,17.43
2023-01-08T20:05:26.052Z,17.23
2023-01-08T20:07:55.755Z,17.83
2023-01-08T20:10:25.697Z,17.90
2023-01-08T20:13:06.707Z,18.83
2023-01-08T20:15:36.395Z,19.03
2023-01-08T20:18:06.975Z,18.73
2023-01-08T20:20:35.492Z,18.03
2023-01-08T20:23:04.008Z,18.70
2023-01-08T20:25:34.637Z,17.43
2023-01-08T20:28:07.259Z,17.27
2023-01-08T20:30:36.013Z,18.10
2023-01-08T20:33:14.196Z,18.40
2023-01-08T20:35:45.287Z,18.23
2023-01-08T20:38:15.393Z,17.03
2023-01-08T20:40:45.814Z,18.17
2023-01-08T20:43:15.972Z,17.10
2023-01-08T20:45:49.192Z,17.67
2023-01-08T20:48:17.836Z,18.07
2023-01-08T20:50:58.744Z,18.27
2023-01-08T20:53:35.714Z,18.77
2023-01-08T20:56:17.997Z,19.17
2023-01-08T20:58:58.010Z,21.80
2023-01-08T21:01:29.713Z,20.90
2023-01-08T21:03:59.817Z,24.20
2023-01-08T21:06:30.909Z,20.20
2023-01-08T21:09:04.410Z,20.77
2023-01-08T21:11:32.821Z,19.73
2023-01-08T21:14:05.882Z,19.77
2023-01-08T21:16:39.688Z,20.73
2023-01-08T21:19:11.080Z,19.53
2023-01-08T21:21:41.149Z,20.17
2023-01-08T21:24:12.754Z,21.20
2023-01-08T21:26:41.332Z,20.17
2023-01-08T21:29:11.960Z,21.47
2023-01-08T21:31:44.664Z,22.13
2023-01-08T21:34:16.232Z,17.43
2023-01-08T21:36:47.022Z,21.40
2023-01-08T21:39:15.640Z,21.00
2023-01-08T21:42:01.881Z,19.67
2023-01-08T21:44:51.393Z,22.30
2023-01-08T21:47:20.070Z,20.60
2023-01-08T21:49:51.821Z,19.67
2023-01-08T21:52:39.579Z,21.43
2023-01-08T21:55:11.099Z,20.43
2023-01-08T21:57:40.119Z,21.47
2023-01-08T22:00:11.635Z,21.50
2023-01-08T22:02:40.251Z,22.03
2023-01-08T22:05:09.472Z,21.87
2023-01-08T22:07:38.100Z,21.10
2023-01-08T22:10:08.068Z,22.00
2023-01-08T22:12:36.660Z,21.80
2023-01-08T22:15:07.479Z,21.57
2023-01-08T22:17:39.462Z,23.17
2023-01-08T22:20:09.965Z,21.23
2023-01-08T22:22:43.820Z,22.50
2023-01-08T22:25:12.340Z,22.77
2023-01-08T22:27:40.832Z,22.57
2023-01-08T22:30:16.539Z,23.47
2023-01-08T22:32:46.655Z,21.77
2023-01-08T22:35:15.514Z,23.37
2023-01-08T22:37:50.272Z,23.27
2023-01-08T22:40:18.849Z,23.57
2023-01-08T22:42:48.942Z,23.03
2023-01-08T22:45:22.489Z,24.20
2023-01-08T22:47:52.498Z,22.63
2023-01-08T22:50:20.993Z,22.73
2023-01-08T22:52:49.533Z,22.27
2023-01-08T22:55:18.218Z,23.43
2023-01-08T22:57:47.914Z,22.63
2023-01-08T23:00:18.534Z,23.37
2023-01-08T23:02:47.316Z,22.27
2023-01-08T23:05:17.239Z,22.10
2023-01-08T23:07:45.889Z,24.23
2023-01-08T23:10:14.370Z,22.37
2023-01-08T23:12:42.830Z,22.17
2023-01-08T23:15:14.434Z,23.07
2023-01-08T23:17:52.108Z,22.33
2023-01-08T23:20:24.996Z,21.73
2023-01-08T23:22:53.463Z,22.37
2023-01-08T23:25:21.972Z,23.70
2023-01-08T23:27:56.661Z,23.43
2023-01-08T23:30:25.298Z,23.70
2023-01-08T23:32:55.978Z,23.83
2023-01-08T23:35:27.255Z,24.60
2023-01-08T23:38:00.082Z,23.67
2023-01-08T23:40:34.053Z,22.83
2023-01-08T23:43:09.395Z,24.17
2023-01-08T23:45:46.312Z,24.63
2023-01-08T23:48:16.182Z,24.23
2023-01-08T23:50:46.231Z,23.40
2023-01-08T23:53:14.708Z,23.03
2023-01-08T23:55:45.837Z,23.97
2023-01-08T23:58:15.946Z,25.30
